createdAt,value
2019-04-23T00:01:23.850Z,41.50
2019-04-23T00:03:40.250Z,41.60
2019-04-23T00:06:19.117Z,41.50
2019-04-23T00:08:49.042Z,41.50
2019-04-23T00:11:13.024Z,41.60
2019-04-23T00:13:43.928Z,41.70
2019-04-23T00:18:46.115Z,41.70
2019-04-23T00:21:18.549Z,41.70
2019-04-23T00:23:59.652Z,41.50
2019-04-23T00:26:23.827Z,41.60
2019-04-23T00:28:51.949Z,41.80
2019-04-23T00:31:18.311Z,41.80
2019-04-23T00:33:44.873Z,41.80
2019-04-23T00:36:26.015Z,42.10
2019-04-23T00:39:01.787Z,42.10
2019-04-23T00:41:16.576Z,42.20
2019-04-23T00:43:54.705Z,42.30
2019-04-23T00:46:25.206Z,42.30
2019-04-23T00:51:16.746Z,42.60
2019-04-23T00:53:54.609Z,42.80
2019-04-23T00:58:57.921Z,42.80
2019-04-23T01:01:19.927Z,42.90
2019-04-23T01:03:53.154Z,42.70
2019-04-23T01:08:52.230Z,43.10
2019-04-23T01:11:21.076Z,44.00
2019-04-23T01:13:57.534Z,43.40
2019-04-23T01:19:06.849Z,43.80
2019-04-23T01:21:26.453Z,43.80
2019-04-23T01:24:04.355Z,44.00
2019-04-23T01:27:30.347Z,44.50
2019-04-23T01:29:44.317Z,44.60
2019-04-23T01:32:16.078Z,44.90
2019-04-23T01:34:50.901Z,45.20
2019-04-23T01:37:19.196Z,45.60
2019-04-23T01:39:49.897Z,45.70
2019-04-23T01:42:24.054Z,46.20
2019-04-23T01:44:50.410Z,46.40
2019-04-23T01:47:18.681Z,46.30
2019-04-23T01:49:53.980Z,46.80
2019-04-23T01:52:21.161Z,46.90
2019-04-23T01:54:47.868Z,47.30
2019-04-23T01:57:17.032Z,47.20
2019-04-23T01:59:49.383Z,47.20
2019-04-23T02:02:19.055Z,47.40
2019-04-23T02:04:54.205Z,47.50
2019-04-23T02:07:27.628Z,47.30
2019-04-23T02:09:51.596Z,47.50
2019-04-23T02:12:20.520Z,48.40
2019-04-23T02:14:49.891Z,48.80
2019-04-23T02:17:18.962Z,48.60
2019-04-23T02:19:59.553Z,48.90
2019-04-23T02:22:25.343Z,49.00
2019-04-23T02:24:54.026Z,49.10
2019-04-23T02:27:19.064Z,49.40
2019-04-23T02:32:42.126Z,49.90
2019-04-23T02:35:09.592Z,50.10
2019-04-23T02:37:35.104Z,50.20
2019-04-23T02:40:13.609Z,50.60
2019-04-23T02:42:41.509Z,50.80
2019-04-23T02:44:56.151Z,51.10
2019-04-23T02:50:11.572Z,51.30
2019-04-23T02:54:58.561Z,51.80
2019-04-23T02:57:38.864Z,51.80
2019-04-23T03:02:49.560Z,52.30
2019-04-23T03:07:41.097Z,52.80
2019-04-23T03:10:11.843Z,52.70
2019-04-23T03:12:48.998Z,52.90
2019-04-23T03:15:24.157Z,53.10
2019-04-23T03:17:52.964Z,53.20
2019-04-23T03:20:21.279Z,53.20
2019-04-23T03:25:31.645Z,53.70
2019-04-23T03:28:11.771Z,53.60
2019-04-23T03:32:31.815Z,54.00
2019-04-23T03:38:36.280Z,55.10
2019-04-23T03:40:46.663Z,55.10
2019-04-23T03:43:19.966Z,55.10
2019-04-23T03:45:58.893Z,55.10
2019-04-23T03:48:30.327Z,55.20
2019-04-23T03:50:43.767Z,55.00
2019-04-23T03:53:26.426Z,55.10
2019-04-23T03:55:54.491Z,54.70
2019-04-23T03:58:28.308Z,54.70
2019-04-23T04:01:00.207Z,54.70
2019-04-23T04:03:42.152Z,55.10
2019-04-23T04:13:31.419Z,55.50
2019-04-23T04:28:35.926Z,56.00
2019-04-23T04:30:49.110Z,56.00
2019-04-23T04:35:57.975Z,56.20
2019-04-23T04:38:38.486Z,56.00
2019-04-23T04:46:12.375Z,56.90
2019-04-23T04:48:27.229Z,57.00
2019-04-23T04:51:00.038Z,57.00
2019-04-23T04:56:09.774Z,57.30
2019-04-23T05:03:29.569Z,57.60
2019-04-23T05:08:34.476Z,57.80
2019-04-23T05:11:05.406Z,58.10
2019-04-23T05:16:01.317Z,58.00
2019-04-23T05:18:39.890Z,57.80
2019-04-23T05:26:08.493Z,57.70
2019-04-23T05:28:49.146Z,57.80
2019-04-23T05:31:14.284Z,58.30
2019-04-23T05:33:41.527Z,57.90
2019-04-23T05:36:26.653Z,58.50
2019-04-23T05:39:00.896Z,59.10
2019-04-23T05:41:17.237Z,59.40
2019-04-23T05:43:43.593Z,58.80
2019-04-23T05:46:25.066Z,58.60
2019-04-23T05:48:39.604Z,59.10
2019-04-23T05:53:47.175Z,59.00
2019-04-23T05:56:13.232Z,58.90
2019-04-23T05:58:46.854Z,59.00
2019-04-23T06:01:47.219Z,59.10
2019-04-23T06:03:56.988Z,59.30
2019-04-23T06:06:30.939Z,59.50
2019-04-23T06:08:53.369Z,59.30
2019-04-23T06:11:28.436Z,59.30
2019-04-23T06:14:03.502Z,59.40
2019-04-23T06:16:31.566Z,59.20
2019-04-23T06:18:59.267Z,59.00
2019-04-23T06:21:30.927Z,59.10
2019-04-23T06:23:58.512Z,59.20
2019-04-23T06:26:32.979Z,59.60
2019-04-23T06:28:57.432Z,59.70
2019-04-23T06:31:41.034Z,58.50
2019-04-23T06:33:54.533Z,57.90
2019-04-23T06:36:29.153Z,57.20
2019-04-23T06:41:30.908Z,57.00
2019-04-23T06:44:09.301Z,56.60
2019-04-23T06:46:29.091Z,55.90
2019-04-23T06:48:54.861Z,56.00
2019-04-23T06:53:57.927Z,55.60
2019-04-23T06:56:40.554Z,55.80
2019-04-23T06:58:58.952Z,56.10
2019-04-23T07:01:27.090Z,56.20
2019-04-23T07:03:57.041Z,56.50
2019-04-23T07:06:46.841Z,56.40
2019-04-23T07:09:09.675Z,56.30
2019-04-23T07:11:33.846Z,55.90
2019-04-23T07:13:55.737Z,56.10
2019-04-23T07:16:29.333Z,55.60
2019-04-23T07:19:04.303Z,55.70
2019-04-23T07:21:42.098Z,55.70
2019-04-23T07:34:01.096Z,55.10
2019-04-23T07:39:07.950Z,55.30
2019-04-23T07:46:53.342Z,55.50
2019-04-23T07:49:15.171Z,55.50
2019-04-23T07:51:55.139Z,55.50
2019-04-23T07:54:25.316Z,55.40
2019-04-23T07:56:53.356Z,55.50
2019-04-23T07:59:20.761Z,55.80
2019-04-23T08:01:51.201Z,55.50
2019-04-23T08:04:19.248Z,55.30
2019-04-23T08:06:46.185Z,55.10
2019-04-23T08:09:17.502Z,55.30
2019-04-23T08:11:45.811Z,55.40
2019-04-23T08:14:13.938Z,55.70
2019-04-23T08:16:43.877Z,55.20
2019-04-23T08:19:25.583Z,55.80
2019-04-23T08:21:58.254Z,55.50
2019-04-23T08:24:18.263Z,55.60
2019-04-23T08:26:55.314Z,55.40
2019-04-23T08:29:22.070Z,55.30
2019-04-23T08:32:12.383Z,55.20
2019-04-23T08:34:30.300Z,54.60
2019-04-23T08:36:56.716Z,55.00
2019-04-23T08:39:30.935Z,55.00
2019-04-23T08:42:23.303Z,54.70
2019-04-23T08:44:47.630Z,55.00
2019-04-23T08:47:02.974Z,55.30
2019-04-23T08:49:39.153Z,55.30
2019-04-23T08:52:08.245Z,55.90
2019-04-23T08:54:45.015Z,55.50
2019-04-23T08:57:14.372Z,54.90
2019-04-23T09:04:45.586Z,54.60
2019-04-23T09:07:12.899Z,54.40
2019-04-23T09:12:23.895Z,54.70
2019-04-23T09:14:42.433Z,54.20
2019-04-23T09:17:13.579Z,54.10
2019-04-23T09:19:42.824Z,54.30
2019-04-23T09:22:14.533Z,54.20
2019-04-23T09:24:40.456Z,53.90
2019-04-23T09:27:16.318Z,54.20
2019-04-23T09:29:45.829Z,54.20
2019-04-23T09:34:43.189Z,53.30
2019-04-23T09:37:26.746Z,54.40
2019-04-23T09:39:59.559Z,53.90
2019-04-23T09:42:46.342Z,54.00
2019-04-23T09:45:15.593Z,53.70
2019-04-23T09:48:00.273Z,53.70
2019-04-23T09:50:23.555Z,53.30
2019-04-23T09:53:04.933Z,53.90
2019-04-23T09:55:32.535Z,54.10
2019-04-23T09:58:00.482Z,54.20
2019-04-23T10:00:31.665Z,54.40
2019-04-23T10:02:41.247Z,53.70
2019-04-23T10:05:11.099Z,53.60
2019-04-23T10:07:39.696Z,53.70
2019-04-23T10:09:57.460Z,53.10
2019-04-23T10:12:26.335Z,53.40
2019-04-23T10:15:05.666Z,53.80
2019-04-23T10:17:26.265Z,53.60
2019-04-23T10:19:55.215Z,53.60
2019-04-23T10:22:25.109Z,53.60
2019-04-23T10:24:55.114Z,52.80
2019-04-23T10:27:25.173Z,52.60
2019-04-23T10:29:54.196Z,53.10
2019-04-23T10:32:22.698Z,52.70
2019-04-23T10:35:03.480Z,52.50
2019-04-23T10:37:32.958Z,52.70
2019-04-23T10:39:58.200Z,52.40
2019-04-23T10:42:21.937Z,52.30
2019-04-23T10:45:17.947Z,52.30
2019-04-23T10:48:25.019Z,52.30
2019-04-23T10:55:56.256Z,51.70
2019-04-23T10:58:22.876Z,52.10
2019-04-23T11:00:57.159Z,51.50
2019-04-23T11:03:42.249Z,51.10
2019-04-23T11:06:02.211Z,51.00
2019-04-23T11:08:24.039Z,51.80
2019-04-23T11:10:58.597Z,51.60
2019-04-23T11:13:31.570Z,51.00
2019-04-23T11:16:24.840Z,51.00
2019-04-23T11:18:40.121Z,51.50
2019-04-23T11:21:00.944Z,51.00
2019-04-23T11:23:29.537Z,51.10
2019-04-23T11:25:58.957Z,50.90
2019-04-23T11:28:33.604Z,51.00
2019-04-23T11:31:03.422Z,51.30
2019-04-23T11:33:37.900Z,51.30
2019-04-23T11:38:50.850Z,51.00
2019-04-23T11:41:17.033Z,51.60
2019-04-23T11:43:32.547Z,51.30
2019-04-23T11:46:24.368Z,51.10
2019-04-23T11:49:11.395Z,50.60
2019-04-23T11:51:43.694Z,50.20
2019-04-23T11:53:42.863Z,50.70
2019-04-23T11:56:31.132Z,50.90
2019-04-23T11:58:42.564Z,50.30
2019-04-23T12:01:38.604Z,50.30
2019-04-23T12:04:07.289Z,50.60
2019-04-23T12:06:36.933Z,49.80
2019-04-23T12:09:14.508Z,49.50
2019-04-23T12:11:53.874Z,49.80
2019-04-23T12:14:24.634Z,48.90
2019-04-23T12:16:47.214Z,48.70
2019-04-23T12:19:51.333Z,48.20
2019-04-23T12:21:47.417Z,48.30
2019-04-23T12:27:01.134Z,47.90
2019-04-23T12:29:20.301Z,47.30
2019-04-23T12:32:18.169Z,46.80
2019-04-23T12:34:42.149Z,46.30
2019-04-23T12:37:17.741Z,46.80
2019-04-23T12:39:42.014Z,46.30
2019-04-23T12:42:35.181Z,45.70
2019-04-23T12:44:45.809Z,45.50
2019-04-23T12:47:27.526Z,45.00
2019-04-23T12:50:05.399Z,44.70
2019-04-23T12:52:18.185Z,44.80
2019-04-23T12:55:02.112Z,44.40
2019-04-23T12:59:44.820Z,43.40
2019-04-23T13:04:50.301Z,43.70
2019-04-23T13:07:17.884Z,42.90
2019-04-23T13:09:53.963Z,42.10
2019-04-23T13:12:33.061Z,42.10
2019-04-23T13:15:00.781Z,41.60
2019-04-23T13:17:30.124Z,41.60
2019-04-23T13:19:53.641Z,41.70
2019-04-23T13:22:23.913Z,41.10
2019-04-23T13:24:53.913Z,40.70
2019-04-23T13:27:49.737Z,40.70
2019-04-23T13:30:17.840Z,40.40
2019-04-23T13:32:50.066Z,40.90
2019-04-23T13:35:18.590Z,40.90
2019-04-23T13:37:42.852Z,41.00
2019-04-23T13:40:10.908Z,40.80
2019-04-23T13:42:47.880Z,40.90
2019-04-23T13:45:26.822Z,40.60
2019-04-23T13:47:58.542Z,40.10
2019-04-23T13:50:20.243Z,40.40
2019-04-23T13:58:03.220Z,39.80
2019-04-23T14:00:19.171Z,39.80
2019-04-23T14:02:46.173Z,40.00
2019-04-23T14:05:28.146Z,40.00
2019-04-23T14:08:03.329Z,40.10
2019-04-23T14:10:34.285Z,40.00
2019-04-23T14:13:24.083Z,40.10
2019-04-23T14:15:40.498Z,40.00
2019-04-23T14:18:22.670Z,40.20
2019-04-23T14:20:27.991Z,40.20
2019-04-23T14:25:40.261Z,38.90
2019-04-23T14:28:15.593Z,37.30
2019-04-23T14:30:44.553Z,38.70
2019-04-23T14:33:15.483Z,39.50
2019-04-23T14:35:40.555Z,40.00
2019-04-23T14:40:48.412Z,37.20
2019-04-23T14:46:23.106Z,37.60
2019-04-23T14:48:23.579Z,36.90
2019-04-23T14:50:56.887Z,37.10
2019-04-23T14:53:33.594Z,37.00
2019-04-23T14:58:42.570Z,37.20
2019-04-23T15:01:22.221Z,36.90
2019-04-23T15:11:20.572Z,38.10
2019-04-23T15:18:53.323Z,37.30
2019-04-23T15:21:37.340Z,37.70
2019-04-23T15:28:26.384Z,38.50
2019-04-23T15:31:20.665Z,38.70
2019-04-23T15:33:56.554Z,39.10
2019-04-23T15:38:53.427Z,39.10
2019-04-23T15:41:29.487Z,39.10
2019-04-23T15:43:52.226Z,39.40
2019-04-23T15:46:26.968Z,39.20
2019-04-23T15:48:57.598Z,39.50
2019-04-23T15:51:30.115Z,39.70
2019-04-23T15:53:51.720Z,39.70
2019-04-23T15:56:33.530Z,39.80
2019-04-23T15:59:02.770Z,40.40
2019-04-23T16:01:31.977Z,41.10
2019-04-23T16:03:24.350Z,40.60
2019-04-23T16:05:52.987Z,40.80
2019-04-23T16:09:01.650Z,40.90
2019-04-23T16:11:36.435Z,41.20
2019-04-23T16:14:13.106Z,41.50
2019-04-23T16:16:29.780Z,42.20
2019-04-23T16:26:55.895Z,42.10
2019-04-23T16:31:47.789Z,42.50
2019-04-23T16:34:24.204Z,42.20
2019-04-23T16:36:54.831Z,41.70
2019-04-23T16:39:21.670Z,41.60
2019-04-23T16:42:02.037Z,41.90
2019-04-23T16:44:31.459Z,42.10
2019-04-23T16:46:55.857Z,42.40
2019-04-23T16:49:23.285Z,42.40
2019-04-23T16:51:54.219Z,41.80
2019-04-23T16:57:25.652Z,41.40
2019-04-23T16:59:24.232Z,41.50
2019-04-23T17:01:59.634Z,41.00
2019-04-23T17:04:25.986Z,40.70
2019-04-23T17:06:59.625Z,40.60
2019-04-23T17:09:26.345Z,40.80
2019-04-23T17:14:23.508Z,40.40
2019-04-23T17:16:49.629Z,40.60
2019-04-23T17:19:29.400Z,40.50
2019-04-23T17:22:01.210Z,40.80
2019-04-23T17:24:25.854Z,40.60
2019-04-23T17:27:03.763Z,41.00
2019-04-23T17:29:28.608Z,41.10
2019-04-23T17:32:00.669Z,41.40
2019-04-23T17:34:35.066Z,41.70
2019-04-23T17:37:12.387Z,41.70
2019-04-23T17:40:08.660Z,41.90
2019-04-23T17:42:37.320Z,42.30
2019-04-23T17:45:30.922Z,42.60
2019-04-23T17:48:03.821Z,42.90
2019-04-23T17:52:56.170Z,43.40
2019-04-23T17:55:25.466Z,43.00
2019-04-23T17:58:03.884Z,43.10
2019-04-23T18:00:38.997Z,43.10
2019-04-23T18:03:05.972Z,43.40
2019-04-23T18:05:18.251Z,43.60
2019-04-23T18:07:59.319Z,43.90
2019-04-23T18:10:33.984Z,44.00
2019-04-23T18:15:35.623Z,44.60
2019-04-23T18:17:55.512Z,44.70
2019-04-23T18:20:38.597Z,44.70
2019-04-23T18:23:14.886Z,44.90
2019-04-23T18:25:59.039Z,45.00
2019-04-23T18:28:28.004Z,45.10
2019-04-23T18:31:11.148Z,45.40
2019-04-23T18:36:08.056Z,45.60
2019-04-23T18:38:39.782Z,45.80
2019-04-23T18:43:57.063Z,45.90
2019-04-23T18:46:18.669Z,46.00
2019-04-23T18:51:07.928Z,46.50
2019-04-23T18:53:54.542Z,46.50
2019-04-23T19:04:02.005Z,47.20
2019-04-23T19:09:09.958Z,47.70
2019-04-23T19:11:58.149Z,47.80
2019-04-23T19:14:18.741Z,47.90
2019-04-23T19:16:53.452Z,48.00
2019-04-23T19:19:24.993Z,48.00
2019-04-23T19:24:18.451Z,48.10
2019-04-23T19:29:27.735Z,48.20
2019-04-23T19:44:32.898Z,49.50
2019-04-23T19:49:32.697Z,50.40
2019-04-23T19:51:57.669Z,50.60
2019-04-23T19:57:05.563Z,51.40
2019-04-23T20:02:07.451Z,51.70
2019-04-23T20:04:39.227Z,51.60
2019-04-23T20:09:47.875Z,51.80
2019-04-23T20:17:26.377Z,52.30
2019-04-23T20:19:48.184Z,52.40
2019-04-23T20:22:14.405Z,52.70
2019-04-23T20:24:55.739Z,52.50
2019-04-23T20:27:11.487Z,52.80
2019-04-23T20:31:47.445Z,53.20
2019-04-23T20:34:53.026Z,53.10
2019-04-23T20:37:05.264Z,53.20
2019-04-23T20:39:50.594Z,53.20
2019-04-23T20:49:47.126Z,53.40
2019-04-23T20:52:10.333Z,53.60
2019-04-23T20:54:56.485Z,53.90
2019-04-23T20:57:44.013Z,53.90
2019-04-23T21:02:52.099Z,54.30
2019-04-23T21:07:52.588Z,54.20
2019-04-23T21:10:18.100Z,54.40
2019-04-23T21:12:50.207Z,54.40
2019-04-23T21:15:10.464Z,54.50
2019-04-23T21:17:43.671Z,54.60
2019-04-23T21:20:16.054Z,54.50
2019-04-23T21:22:38.176Z,54.70
2019-04-23T21:25:05.342Z,54.80
2019-04-23T21:27:48.695Z,54.50
2019-04-23T21:30:05.335Z,54.70
2019-04-23T21:37:54.200Z,54.70
2019-04-23T21:43:09.398Z,54.90
2019-04-23T21:45:42.415Z,55.10
2019-04-23T21:48:09.671Z,55.00
2019-04-23T21:50:47.338Z,55.00
2019-04-23T21:53:11.659Z,55.10
2019-04-23T21:55:47.270Z,54.90
2019-04-23T22:00:51.930Z,54.80
2019-04-23T22:03:15.371Z,54.70
2019-04-23T22:05:52.812Z,54.70
2019-04-23T22:08:06.909Z,54.80
2019-04-23T22:11:00.414Z,54.80
2019-04-23T22:13:24.924Z,54.80
2019-04-23T22:16:44.851Z,54.90
2019-04-23T22:18:12.860Z,55.00
2019-04-23T22:20:50.482Z,55.20
2019-04-23T22:23:18.220Z,55.30
2019-04-23T22:25:56.431Z,55.40
2019-04-23T22:28:18.214Z,55.30
2019-04-23T22:33:18.355Z,56.00
2019-04-23T22:35:57.444Z,56.10
2019-04-23T22:38:20.704Z,56.30
2019-04-23T22:40:49.684Z,56.30
2019-04-23T22:48:27.396Z,56.20
2019-04-23T22:51:11.100Z,56.10
2019-04-23T22:53:16.843Z,56.10
2019-04-23T22:55:57.682Z,56.30
2019-04-23T22:58:27.470Z,56.20
2019-04-23T23:01:23.497Z,56.40
2019-04-23T23:03:53.989Z,56.50
2019-04-23T23:08:57.443Z,57.00
2019-04-23T23:11:13.692Z,57.10
2019-04-23T23:14:00.767Z,57.10
2019-04-23T23:16:16.434Z,57.30
2019-04-23T23:18:53.804Z,57.80
2019-04-23T23:21:22.316Z,58.10
2019-04-23T23:23:46.099Z,58.40
2019-04-23T23:26:21.952Z,58.60
2019-04-23T23:28:53.166Z,59.10
2019-04-23T23:31:16.275Z,59.50
2019-04-23T23:33:47.437Z,59.80
2019-04-23T23:39:05.499Z,60.00
2019-04-23T23:41:31.763Z,60.60
2019-04-23T23:43:54.420Z,60.70
2019-04-23T23:46:31.393Z,61.00
2019-04-23T23:48:48.471Z,61.30
2019-04-23T23:59:01.831Z,61.70
